Barkley Regional Airport
KPAH : now visible

Airfield :











YOU CAN JOIN US ON...

 
LOGIN :

Register | Disclaimer

   EN    FR    IT 

 









Legend :    VFR   Marginal VFR   IFR   Intensive IFR   Very Intensive IFR
Visi :
Ceiling :
>= 8 km
>= 3000ft
5 to 8 km
1000 to 3000 ft
1500m to 5 km
500 to 1000 ft
800 to 1500m
200 to 500 ft
< 800m
< 200 ft
Symbols :   Thunderstorms  Fog  Heavy snow  Heavy precipitations  Wind > 20 kt






- Airport Elevation : 410 ft
- IATA code : PAH


KPAH - Barkley Regional

CURRENT METAR :
  • 120253Z 17003KT 10SM CLR M01/M04 A3048 RMK AO2 SLP324 T10061044 58002

EXPIRED METARs :
  • 120153Z 00000KT 10SM CLR M02/M05 A3048 RMK AO2 SLP327 T10171050
  • 120053Z 18003KT 10SM CLR 02/M04 A3049 RMK AO2 SLP328 T00221044

TAF KPAH
Valid from the 12 at 00:00 until the 13 at 00:00 UTC


112320Z 1200/1224 16003KT P6SM SCT250
FM121500 17008KT P6SM BKN200



MET'MAP, your aeronautical weather chart ! - Copyright ORBIFLY December 2007 - Disclaimer

ORBIFLY MET'MAP TEAM :

Programming & Development : Alexandra Zaïnal
Concept & original design : Baudouin d'Aumeries
Assistance for programming : Marc-Olivier Méhu
Technical & hardware support : Manuel Goepfert

Contact : metmap@orbifly.com




SOURCES & CREDITS :

   NOAA       Earth
Advisory